wfrog 0.8.1-svn - Estació meteorològica 6tec Manacor
2022-08-08 02:53:10
wfrog
25.5°C
Humidity 86 %
Pressure 1011.0 hPa
⌂  
32.9°C
34 %

Wind 0 km/h
Gust 0 km/h
Rain 0 mm /h
 
Temperature and Dew Point
°C
Humidity
%
Pressure
Wind and Gusts
Wind Direction

Rain
Rain rate
mm /h
UV Index

                      Temp. C         Humidity %     Pressure hPa       Rain mm        Wind km/h       UV     
                   max   min   avg  max  min  avg   max   min   avg   fall   rate    avg    max  dir
2022/08/08 02:49  25.5  25.5  25.5  86%  86%  86%  1011  1011  1011    0.0    0.0    0.0    0.0    E    -
2022/08/08 02:44  25.7  25.7  25.7  86%  86%  86%  1010  1010  1010    0.0    0.0    0.0    0.0    E    -
2022/08/08 02:39  25.6  25.6  25.6  84%  84%  84%  1009  1009  1009    0.0    0.0    0.0    0.0    E    -
2022/08/08 02:34  25.6  25.6  25.6  84%  84%  84%  1009  1009  1009    0.0    0.0    0.0    0.0    E    -
2022/08/08 02:29  25.8  25.8  25.8  84%  84%  84%  1009  1009  1009    0.0    0.0    0.0    0.0    E    -
2022/08/08 02:24  25.9  25.9  25.9  85%  85%  85%  1009  1009  1009    0.0    0.0    0.0    0.0    E    -
2022/08/08 02:19  26.1  26.1  26.1  86%  86%  86%  1009  1009  1009    0.0    0.0    0.0    0.0    E    -
2022/08/08 02:14  26.5  26.5  26.5  87%  87%  87%  1009  1009  1009    0.0    0.0    0.0    0.0    E    -
2022/08/08 02:09  26.4  26.4  26.4  86%  86%  86%  1009  1009  1009    0.0    0.0    0.0    0.0    E    -
2022/08/08 02:03  26.5  26.5  26.5  86%  86%  86%  1009  1009  1009    0.0    0.0    0.0    0.0    E    -
2022/08/08 01:58  26.5  26.5  26.5  86%  86%  86%  1009  1009  1009    0.0    0.0    0.0    0.0    E    -
2022/08/08 01:53  26.5  26.5  26.5  86%  86%  86%  1009  1009  1009    0.0    0.0    0.0    0.0    E    -
2022/08/08 01:48  26.5  26.5  26.5  86%  86%  86%  1009  1009  1009    0.0    0.0    0.0    0.0    E    -
2022/08/08 01:43  26.4  26.4  26.4  85%  85%  85%  1009  1009  1009    0.0    0.0    0.4    3.2  WNW    -
2022/08/08 01:38  26.3  26.3  26.3  84%  84%  84%  1009  1009  1009    0.0    0.0    0.0    1.4    E    -
2022/08/08 01:33  26.3  26.3  26.3  84%  84%  84%  1009  1009  1009    0.0    0.0    0.0    0.0    E    -
2022/08/08 01:28  26.2  26.2  26.2  83%  83%  83%  1010  1010  1010    0.0    0.0    0.0    2.2    E    -
2022/08/08 01:23  26.3  26.3  26.3  83%  83%  83%  1010  1010  1010    0.0    0.0    0.0    1.4    E    -
2022/08/08 01:18  26.4  26.4  26.4  84%  84%  84%  1010  1010  1010    0.0    0.0    0.0    0.0    E    -
2022/08/08 01:13  26.6  26.6  26.6  83%  83%  83%  1010  1010  1010    0.0    0.0    0.0    0.0    E    -
2022/08/08 01:08  26.5  26.5  26.5  83%  83%  83%  1009  1009  1009    0.0    0.0    0.0    0.0    E    -
2022/08/08 01:03  26.5  26.5  26.5  82%  82%  82%  1009  1009  1009    0.0    0.0    0.0    0.0    E    -
2022/08/08 00:58  26.7  26.7  26.7  82%  82%  82%  1009  1009  1009    0.0    0.0    0.0    0.0    E    -
2022/08/08 00:53  27.0  27.0  27.0  82%  82%  82%  1009  1009  1009    0.0    0.0    0.0    0.0    E    -
2022/08/08 00:48  26.9  26.9  26.9  81%  81%  81%  1009  1009  1009    0.0    0.0    0.0    0.0    E    -
2022/08/08 00:42  26.9  26.9  26.9  80%  80%  80%  1010  1010  1010    0.0    0.0    0.0    0.0    E    -
2022/08/08 00:37  27.0  27.0  27.0  80%  80%  80%  1010  1010  1010    0.0    0.0    0.0    0.0    E    -
2022/08/08 00:32  27.0  27.0  27.0  80%  80%  80%  1010  1010  1010    0.0    0.0    0.0    0.0    E    -
2022/08/08 00:27  27.0  27.0  27.0  79%  79%  79%  1009  1009  1009    0.0    0.0    0.0    0.0    E    -
2022/08/08 00:22  27.0  27.0  27.0  80%  80%  80%  1009  1009  1009    0.0    0.0    0.0    0.0    E    -
2022/08/08 00:17  27.2  27.2  27.2  80%  80%  80%  1009  1009  1009    0.0    0.0    0.0    0.0    E    -
2022/08/08 00:12  27.2  27.2  27.2  80%  80%  80%  1009  1009  1009    0.0    0.0    0.0    0.0    E    -
2022/08/08 00:07  27.1  27.1  27.1  79%  79%  79%  1009  1009  1009    0.0    0.0    0.0    0.0    E    -
2022/08/08 00:02  27.2  27.2  27.2  79%  79%  79%  1009  1009  1009    0.0    0.0    0.0    0.0    E    -
2022/08/07 23:57  27.2  27.2  27.2  78%  78%  78%  1009  1009  1009    0.0    0.0    0.0    0.0    E    -
2022/08/07 23:52  27.2  27.2  27.2  78%  78%  78%  1009  1009  1009    0.0    0.0    1.8    6.5  SSW    -